Time;durP1;ratioP1;P1;durP2;ratioP2;P2;SDS_P1;SDS_P2;PMS_P1;PMS_P2;Temp;Humidity;BMP_temperature;BMP_pressure;BME280_temperature;BME280_humidity;BME280_pressure;Samples;Min_cycle;Max_cycle;Signal;HPM_P1;HPM_P2
2022/01/29 00:01:04;;;;;;;1.02;0.63;;;;;;;9.52;100.00;102418.28;4989580;28;20053;-78
2022/01/29 00:03:35;;;;;;;1.42;0.50;;;;;;;9.56;100.00;102413.53;4990569;28;20485;-81
2022/01/29 00:06:02;;;;;;;0.95;0.70;;;;;;;9.55;100.00;102426.09;4971727;28;20266;-80
2022/01/29 00:08:28;;;;;;;0.50;0.50;;;;;;;9.58;100.00;102428.53;5001263;28;20033;-78
2022/01/29 00:11:02;;;;;;;0.40;0.40;;;;;;;9.58;100.00;102423.16;5002643;28;20026;-81
2022/01/29 00:13:27;;;;;;;;;;;;;;;9.59;100.00;102424.84;5009668;28;20038;-81
2022/01/29 00:15:53;;;;;;;0.40;0.40;;;;;;;9.61;100.00;102422.06;4973376;28;19917;-82
2022/01/29 00:18:19;;;;;;;0.60;0.60;;;;;;;9.60;100.00;102421.16;4974317;28;20061;-82
2022/01/29 00:20:44;;;;;;;0.55;0.55;;;;;;;9.64;100.00;102424.47;4972950;28;20034;-81
2022/01/29 00:23:10;;;;;;;0.57;0.57;;;;;;;9.63;100.00;102426.31;5024735;28;20030;-81
2022/01/29 00:25:36;;;;;;;0.60;0.60;;;;;;;9.63;100.00;102423.63;5007854;28;20393;-81
2022/01/29 00:28:01;;;;;;;1.05;1.05;;;;;;;9.67;100.00;102427.75;5004549;28;20191;-80
2022/01/29 00:30:36;;;;;;;0.50;0.50;;;;;;;9.68;100.00;102428.59;5008090;28;20119;-81
2022/01/29 00:33:01;;;;;;;0.60;0.60;;;;;;;9.67;100.00;102425.06;4992566;28;20136;-79
2022/01/29 00:35:27;;;;;;;1.08;0.98;;;;;;;9.68;100.00;102416.03;4993756;28;20108;-79
2022/01/29 00:37:53;;;;;;;2.10;1.10;;;;;;;9.69;100.00;102415.03;4987879;28;20576;-79
2022/01/29 00:40:21;;;;;;;0.68;0.68;;;;;;;9.67;100.00;102414.31;4984073;28;20045;-79
2022/01/29 00:42:46;;;;;;;0.47;0.47;;;;;;;9.71;100.00;102414.91;5007567;28;20034;-79
2022/01/29 00:45:12;;;;;;;0.40;0.40;;;;;;;9.61;100.00;102397.88;4992098;28;20041;-78
2022/01/29 00:47:38;;;;;;;4.03;1.85;;;;;;;9.72;100.00;102407.72;4988864;28;20022;-80
2022/01/29 00:50:04;;;;;;;0.50;0.50;;;;;;;9.71;100.00;102419.41;5009982;28;20120;-78
2022/01/29 00:52:29;;;;;;;0.85;0.70;;;;;;;9.73;100.00;102410.25;4991705;28;20380;-80
2022/01/29 00:54:55;;;;;;;0.50;0.50;;;;;;;9.72;100.00;102408.56;5005847;28;20508;-82
2022/01/29 00:57:21;;;;;;;0.40;0.40;;;;;;;9.62;100.00;102389.69;4993566;28;20488;-81
2022/01/29 00:59:47;;;;;;;0.50;0.50;;;;;;;9.71;100.00;102406.00;5005966;28;20124;-82
2022/01/29 01:02:13;;;;;;;0.50;0.50;;;;;;;9.71;100.00;102404.16;4989345;28;20042;-82
2022/01/29 01:04:39;;;;;;;0.60;0.60;;;;;;;9.75;100.00;102410.13;5000201;28;20034;-84
2022/01/29 01:07:09;;;;;;;7.97;2.10;;;;;;;9.76;100.00;102401.09;5006744;28;20491;-79
2022/01/29 01:09:35;;;;;;;4.70;0.77;;;;;;;9.76;100.00;102401.09;5003285;28;20088;-83
2022/01/29 01:12:01;;;;;;;0.60;0.60;;;;;;;9.80;100.00;102394.47;5003645;28;20026;-80
2022/01/29 01:14:29;;;;;;;0.60;0.52;;;;;;;9.77;100.00;102386.69;5002651;28;20779;-82
2022/01/29 01:16:55;;;;;;;0.40;0.40;;;;;;;9.79;100.00;102385.56;5004386;28;20111;-81
2022/01/29 01:19:25;;;;;;;0.73;0.63;;;;;;;9.81;100.00;102380.91;4990358;28;20096;-79
2022/01/29 01:21:55;;;;;;;0.93;0.47;;;;;;;9.82;100.00;102390.69;5002914;28;20092;-80
2022/01/29 01:24:22;;;;;;;3.22;0.70;;;;;;;9.85;100.00;102387.72;5002280;28;20057;-79
2022/01/29 01:26:47;;;;;;;7.03;2.05;;;;;;;9.88;100.00;102381.25;5007769;28;20030;-84
2022/01/29 01:29:16;;;;;;;0.60;0.60;;;;;;;9.87;100.00;102384.88;5005810;28;20026;-81
2022/01/29 01:31:44;;;;;;;0.73;0.73;;;;;;;9.87;100.00;102379.53;4990407;28;20044;-82
2022/01/29 01:34:11;;;;;;;1.13;1.13;;;;;;;9.83;100.00;102378.09;5006352;28;20080;-78
2022/01/29 01:36:44;;;;;;;1.13;1.02;;;;;;;9.88;100.00;102378.56;4993551;28;20042;-80
2022/01/29 01:39:13;;;;;;;0.40;0.40;;;;;;;9.90;100.00;102388.19;5002849;28;20033;-80
2022/01/29 01:41:41;;;;;;;7.93;1.40;;;;;;;9.90;100.00;102355.09;4992512;28;20034;-81
2022/01/29 01:44:13;;;;;;;3.75;1.17;;;;;;;9.94;100.00;102375.34;4976281;28;20052;-81
2022/01/29 01:46:38;;;;;;;3.65;1.10;;;;;;;9.92;100.00;102363.84;4994481;28;20117;-79
2022/01/29 01:49:04;;;;;;;0.50;0.50;;;;;;;9.87;100.00;102353.53;4986017;28;20030;-79
2022/01/29 01:51:30;;;;;;;1.65;0.82;;;;;;;9.90;100.00;102366.69;5004824;28;20614;-81
2022/01/29 01:53:55;;;;;;;0.82;0.75;;;;;;;9.87;100.00;102363.41;4984068;28;20475;-82
2022/01/29 01:56:21;;;;;;;1.70;1.42;;;;;;;9.88;100.00;102365.13;4986922;28;20056;-82
2022/01/29 01:58:47;;;;;;;8.35;2.42;;;;;;;9.85;100.00;102360.00;5006797;28;20038;-80
2022/01/29 02:01:13;;;;;;;2.35;1.17;;;;;;;9.87;100.00;102347.28;5005837;28;22013;-78
2022/01/29 02:03:39;;;;;;;3.80;1.40;;;;;;;9.85;100.00;102350.13;4987755;28;20046;-82
2022/01/29 02:06:05;;;;;;;1.00;0.75;;;;;;;9.83;100.00;102340.47;4973851;28;20112;-82
2022/01/29 02:08:31;;;;;;;2.60;1.02;;;;;;;9.85;100.00;102334.00;5009101;28;20049;-80
2022/01/29 02:11:04;;;;;;;0.98;0.70;;;;;;;9.83;100.00;102343.16;4991623;28;20030;-80
2022/01/29 02:13:33;;;;;;;1.75;0.98;;;;;;;9.84;100.00;102342.16;5002924;28;20033;-81
2022/01/29 02:16:01;;;;;;;0.85;0.80;;;;;;;9.84;100.00;102345.75;4991942;28;20034;-81
2022/01/29 02:18:26;;;;;;;3.58;1.13;;;;;;;9.83;100.00;102337.81;4968746;28;20037;-83
2022/01/29 02:20:53;;;;;;;1.98;0.90;;;;;;;9.78;100.00;102332.81;5005832;28;20041;-81
2022/01/29 02:23:18;;;;;;;1.73;1.23;;;;;;;9.76;100.00;102329.41;4992716;28;20109;-79
2022/01/29 02:25:46;;;;;;;5.20;1.20;;;;;;;9.71;100.00;102337.00;5005963;28;20029;-80
2022/01/29 02:28:15;;;;;;;2.42;1.20;;;;;;;9.75;100.00;102335.75;4991317;28;20018;-81
2022/01/29 02:30:43;;;;;;;0.70;0.70;;;;;;;9.73;100.00;102331.50;5006025;28;21137;-78
2022/01/29 02:33:12;;;;;;;5.78;1.58;;;;;;;9.71;100.00;102334.31;5007505;28;20029;-81
2022/01/29 02:35:46;;;;;;;2.88;0.85;;;;;;;9.69;100.00;102329.09;5008020;28;20040;-82
2022/01/29 02:38:12;;;;;;;;;;;;;;;9.68;100.00;102330.09;4989677;28;20606;-82
2022/01/29 02:41:11;;;;;;;0.57;0.57;;;;;;;9.59;100.00;102311.22;4989115;28;19972;-81
2022/01/29 02:43:41;;;;;;;4.72;1.75;;;;;;;9.63;100.00;102331.44;5007933;28;20033;-81
2022/01/29 02:46:20;;;;;;;3.72;2.35;;;;;;;9.61;100.00;102309.25;4996402;28;20029;-81
2022/01/29 02:48:48;;;;;;;4.40;1.52;;;;;;;9.68;100.00;102311.28;4991173;28;20042;-79
2022/01/29 02:51:14;;;;;;;1.55;1.13;;;;;;;9.65;100.00;102324.09;5005716;28;22624;-82
2022/01/29 02:53:40;;;;;;;7.00;1.52;;;;;;;9.67;100.00;102312.25;4969981;28;20044;-81
2022/01/29 02:56:06;;;;;;;1.98;1.13;;;;;;;9.66;100.00;102310.56;4987980;28;20192;-83
2022/01/29 02:58:31;;;;;;;5.20;1.98;;;;;;;9.67;100.00;102311.41;5005842;28;20049;-83
2022/01/29 03:00:57;;;;;;;10.32;1.33;;;;;;;9.39;100.00;102261.88;4990721;28;20492;-82
2022/01/29 03:03:24;;;;;;;2.63;1.42;;;;;;;9.64;100.00;102301.78;5013802;28;20091;-80
2022/01/29 03:05:51;;;;;;;5.55;1.88;;;;;;;9.65;100.00;102302.63;5013108;28;20149;-80
2022/01/29 03:08:17;;;;;;;6.00;2.13;;;;;;;9.69;100.00;102301.38;5004168;28;20029;-79
2022/01/29 03:10:43;;;;;;;13.10;3.00;;;;;;;9.76;100.00;102307.06;5006482;28;20048;-79
2022/01/29 03:13:09;;;;;;;2.33;1.15;;;;;;;9.73;100.00;102291.22;5006336;28;20038;-78
2022/01/29 03:15:35;;;;;;;9.70;2.38;;;;;;;9.76;100.00;102299.00;5006054;28;20391;-80
2022/01/29 03:18:01;;;;;;;9.02;2.50;;;;;;;9.79;100.00;102301.41;4970822;28;20041;-82
2022/01/29 03:20:26;;;;;;;8.52;1.98;;;;;;;9.81;100.00;102294.09;5004086;28;20117;-80
2022/01/29 03:22:52;;;;;;;11.82;1.90;;;;;;;9.75;100.00;102270.44;4980702;28;20038;-81
2022/01/29 03:25:18;;;;;;;14.85;3.72;;;;;;;9.80;100.00;102282.50;4983296;28;20030;-80
2022/01/29 03:27:45;;;;;;;12.57;3.33;;;;;;;9.84;100.00;102272.31;5003469;28;20030;-81
2022/01/29 03:30:11;;;;;;;13.52;2.40;;;;;;;9.75;100.00;102273.13;5004061;28;20108;-82
2022/01/29 03:32:37;;;;;;;11.48;2.78;;;;;;;9.81;100.00;102268.06;4981929;28;20030;-81
2022/01/29 03:35:03;;;;;;;14.23;2.53;;;;;;;9.83;100.00;102263.41;4992926;28;20538;-80
2022/01/29 03:37:29;;;;;;;18.13;3.40;;;;;;;9.74;100.00;102249.94;5006460;28;20036;-82
2022/01/29 03:40:01;;;;;;;3.55;1.80;;;;;;;9.86;100.00;102251.56;5004372;28;20021;-78
2022/01/29 03:42:29;;;;;;;12.48;2.55;;;;;;;9.89;100.00;102259.34;4995820;28;20030;-81
2022/01/29 03:44:55;;;;;;;8.32;2.17;;;;;;;9.89;100.00;102260.19;5010396;28;20038;-82
2022/01/29 03:47:21;;;;;;;11.27;2.42;;;;;;;9.87;100.00;102239.81;5008314;28;20033;-81
2022/01/29 03:49:46;;;;;;;5.72;2.05;;;;;;;9.94;100.00;102243.66;4990785;28;20040;-79
2022/01/29 03:52:12;;;;;;;4.50;1.83;;;;;;;9.98;100.00;102258.53;4993090;28;20443;-82
2022/01/29 03:54:38;;;;;;;14.27;2.95;;;;;;;10.02;100.00;102251.91;5009873;28;20084;-83
2022/01/29 03:57:03;;;;;;;21.52;3.53;;;;;;;10.07;100.00;102251.50;4990781;28;20033;-80
2022/01/29 03:59:29;;;;;;;10.73;2.80;;;;;;;10.11;100.00;102242.19;4989775;28;20518;-78
2022/01/29 04:01:55;;;;;;;17.25;3.33;;;;;;;10.06;100.00;102231.00;5008567;28;20533;-80
2022/01/29 04:04:20;;;;;;;13.15;2.85;;;;;;;10.17;100.00;102233.56;5003609;28;20086;-79
2022/01/29 04:06:46;;;;;;;17.42;3.40;;;;;;;10.02;100.00;102206.22;5007419;28;20037;-85
2022/01/29 04:09:12;;;;;;;12.57;2.78;;;;;;;10.18;100.00;102245.16;4991622;28;20056;-78
2022/01/29 04:11:39;;;;;;;17.33;2.85;;;;;;;10.22;100.00;102258.22;5008173;28;20100;-81
2022/01/29 04:14:18;;;;;;;9.45;2.63;;;;;;;10.19;100.00;102249.53;5006809;28;20041;-81
2022/01/29 04:16:45;;;;;;;16.98;3.42;;;;;;;10.23;100.00;102257.22;4992246;28;20395;-80
2022/01/29 04:19:11;;;;;;;12.38;3.10;;;;;;;10.20;100.00;102257.50;4989071;28;20460;-82
2022/01/29 04:21:37;;;;;;;15.38;3.33;;;;;;;10.18;100.00;102235.25;5007328;28;20041;-84
2022/01/29 04:24:03;;;;;;;18.55;3.47;;;;;;;10.31;100.00;102248.50;4998123;28;20026;-82
2022/01/29 04:26:34;;;;;;;31.45;3.90;;;;;;;10.32;100.00;102250.22;4983278;28;20360;-78
2022/01/29 04:29:03;;;;;;;17.70;3.30;;;;;;;10.28;100.00;102236.19;5008026;28;20048;-82
2022/01/29 04:31:37;;;;;;;23.65;4.57;;;;;;;10.32;100.00;102240.31;5005328;28;20038;-80
2022/01/29 04:34:03;;;;;;;11.27;3.28;;;;;;;10.32;100.00;102237.63;4993299;28;20041;-80
2022/01/29 04:36:29;;;;;;;19.25;3.83;;;;;;;10.31;100.00;102237.75;5014465;28;20029;-81
2022/01/29 04:38:54;;;;;;;26.25;5.85;;;;;;;10.26;100.00;102226.50;4977591;28;20033;-82
2022/01/29 04:41:21;;;;;;;16.33;3.45;;;;;;;10.27;100.00;102226.41;4976371;28;20040;-81
2022/01/29 04:43:47;;;;;;;28.80;4.47;;;;;;;10.32;100.00;102226.03;5007678;28;20049;-78
2022/01/29 04:46:13;;;;;;;19.10;3.72;;;;;;;10.32;100.00;102231.41;5003761;28;20464;-81
2022/01/29 04:48:39;;;;;;;18.52;3.63;;;;;;;10.29;100.00;102219.06;4991686;28;20052;-83
2022/01/29 04:51:04;;;;;;;24.40;4.72;;;;;;;10.24;100.00;102194.41;4990249;28;20030;-82
2022/01/29 04:53:30;;;;;;;16.70;3.65;;;;;;;10.19;100.00;102193.97;4993991;28;20034;-82
2022/01/29 04:55:56;;;;;;;18.48;2.97;;;;;;;10.28;100.00;102205.75;5004737;28;20076;-83
2022/01/29 04:58:22;;;;;;;8.25;2.03;;;;;;;10.29;100.00;102212.81;4992295;28;20038;-81
2022/01/29 05:00:50;;;;;;;17.15;3.42;;;;;;;10.32;100.00;102229.56;4988069;28;20474;-78
2022/01/29 05:03:16;;;;;;;27.35;4.13;;;;;;;10.28;100.00;102236.19;5005702;28;20105;-84
2022/01/29 05:05:42;;;;;;;29.00;5.78;;;;;;;10.29;100.00;102250.47;5009053;28;20491;-81
2022/01/29 05:08:08;;;;;;;15.90;3.20;;;;;;;10.26;100.00;102229.19;4995247;28;20045;-83
2022/01/29 05:10:35;;;;;;;12.30;3.10;;;;;;;10.29;100.00;102224.44;5005844;28;20041;-81
2022/01/29 05:13:07;;;;;;;26.00;4.90;;;;;;;10.31;100.00;102227.81;5009416;28;20029;-79
2022/01/29 05:15:38;;;;;;;24.27;3.45;;;;;;;10.28;100.00;102233.50;5005233;28;20036;-80
2022/01/29 05:29:06;;;;;;;21.85;4.95;;;;;;;10.34;100.00;102240.16;5002725;28;21922;-79
2022/01/29 05:31:31;;;;;;;18.38;4.85;;;;;;;10.28;100.00;102222.72;5004486;28;20029;-83
2022/01/29 05:33:57;;;;;;;21.52;3.55;;;;;;;10.40;100.00;102228.84;4969848;28;20940;-77
2022/01/29 05:36:23;;;;;;;22.60;3.88;;;;;;;10.43;100.00;102225.88;5000539;28;20728;-78
2022/01/29 05:38:49;;;;;;;20.00;3.40;;;;;;;10.49;100.00;102229.84;4988724;28;20044;-78
2022/01/29 05:41:15;;;;;;;17.25;3.67;;;;;;;10.55;100.00;102230.13;5001237;28;20046;-79
2022/01/29 05:43:43;;;;;;;19.08;4.22;;;;;;;10.57;100.00;102230.84;4991559;28;20029;-84
2022/01/29 05:46:13;;;;;;;22.15;3.78;;;;;;;10.66;100.00;102239.06;4995524;28;20380;-82
2022/01/29 05:48:39;;;;;;;35.40;4.85;;;;;;;10.62;100.00;102241.19;4989104;28;20073;-82
2022/01/29 05:51:08;;;;;;;24.08;4.13;;;;;;;10.70;100.00;102248.56;5004348;28;20022;-84
2022/01/29 05:53:34;;;;;;;24.90;4.82;;;;;;;10.72;100.00;102251.97;5003014;28;21759;-80
2022/01/29 05:56:00;;;;;;;19.70;4.93;;;;;;;10.71;100.00;102228.75;5005553;28;20046;-81
2022/01/29 05:58:25;;;;;;;25.20;5.80;;;;;;;10.72;100.00;102208.94;5003192;28;20468;-81
2022/01/29 06:00:52;;;;;;;14.73;2.92;;;;;;;10.70;100.00;102203.69;4990236;28;20049;-81
2022/01/29 06:03:17;;;;;;;19.60;4.35;;;;;;;10.69;100.00;102225.34;4996103;28;20136;-82
2022/01/29 06:05:43;;;;;;;19.33;3.70;;;;;;;10.74;100.00;102220.38;4974390;28;20420;-78
2022/01/29 06:08:09;;;;;;;12.38;3.13;;;;;;;10.68;100.00;102224.47;5006322;28;20033;-83
2022/01/29 06:10:34;;;;;;;20.17;3.33;;;;;;;10.72;100.00;102217.00;4972610;28;20475;-83
2022/01/29 06:13:04;;;;;;;29.67;6.93;;;;;;;10.51;100.00;102185.69;5006817;28;20075;-79
2022/01/29 06:15:35;;;;;;;27.88;3.70;;;;;;;10.81;100.00;102228.75;4993266;28;20029;-78
2022/01/29 06:18:01;;;;;;;36.78;6.32;;;;;;;10.81;100.00;102221.53;4998887;28;20205;-78
2022/01/29 06:20:27;;;;;;;27.95;4.60;;;;;;;10.71;100.00;102212.59;4989724;28;20033;-79
2022/01/29 06:22:53;;;;;;;32.60;6.03;;;;;;;10.67;100.00;102233.56;5005147;28;20034;-83
2022/01/29 06:25:19;;;;;;;13.00;3.50;;;;;;;10.49;100.00;102213.72;5002083;28;20040;-81
2022/01/29 06:27:45;;;;;;;27.15;5.88;;;;;;;10.43;100.00;102225.88;5005603;28;20022;-82
2022/01/29 06:30:11;;;;;;;23.83;3.88;;;;;;;10.35;100.00;102217.66;4987253;28;20069;-81
2022/01/29 06:32:37;;;;;;;27.40;5.22;;;;;;;10.27;100.00;102212.09;5006711;28;20026;-78
2022/01/29 06:35:03;;;;;;;30.00;5.53;;;;;;;10.17;100.00;102220.13;4999695;28;20041;-78
2022/01/29 06:37:28;;;;;;;28.75;4.80;;;;;;;10.21;100.00;102221.53;5023266;28;20034;-79
2022/01/29 06:39:54;;;;;;;26.77;3.65;;;;;;;10.08;100.00;102203.00;4988092;28;20048;-81
2022/01/29 06:42:20;;;;;;;13.32;3.28;;;;;;;10.08;100.00;102207.50;4987632;28;20391;-78
2022/01/29 06:44:45;;;;;;;23.63;4.65;;;;;;;10.07;100.00;102213.88;5000950;28;20113;-80
2022/01/29 06:47:11;;;;;;;27.33;4.90;;;;;;;10.11;100.00;102231.44;5005721;28;20128;-81
2022/01/29 06:49:37;;;;;;;22.00;4.43;;;;;;;10.11;100.00;102223.38;4989581;28;20133;-79
2022/01/29 06:52:03;;;;;;;22.35;4.30;;;;;;;10.09;100.00;102223.50;4974283;28;20407;-81
2022/01/29 06:54:28;;;;;;;27.83;3.65;;;;;;;10.11;100.00;102212.63;5003767;28;20554;-80
2022/01/29 06:56:54;;;;;;;13.93;3.80;;;;;;;10.07;100.00;102220.09;4978063;28;20048;-82
2022/01/29 06:59:20;;;;;;;19.85;4.40;;;;;;;10.04;100.00;102209.63;4973425;28;20057;-81
2022/01/29 07:01:45;;;;;;;22.90;3.70;;;;;;;10.09;100.00;102219.97;5002658;28;20088;-80
2022/01/29 07:04:11;;;;;;;20.23;4.28;;;;;;;9.97;100.00;102181.59;5004600;28;20113;-81
2022/01/29 07:06:37;;;;;;;34.60;7.35;;;;;;;10.22;100.00;102222.41;5005691;28;20054;-79
2022/01/29 07:09:03;;;;;;;37.40;5.95;;;;;;;10.18;100.00;102213.75;5002819;28;20034;-80
2022/01/29 07:11:31;;;;;;;21.52;5.43;;;;;;;10.26;100.00;102231.88;5015221;28;20044;-82
2022/01/29 07:14:03;;;;;;;24.85;4.80;;;;;;;10.22;100.00;102222.41;4998703;28;20033;-78
2022/01/29 07:16:34;;;;;;;29.15;5.60;;;;;;;10.21;100.00;102224.22;4972910;28;20124;-79
2022/01/29 07:19:01;;;;;;;22.52;4.47;;;;;;;10.20;100.00;102227.91;4984976;28;20087;-78
2022/01/29 07:21:27;;;;;;;28.02;5.18;;;;;;;10.16;100.00;102220.25;5000840;28;20041;-79
2022/01/29 07:23:52;;;;;;;15.93;4.80;;;;;;;10.12;100.00;102219.69;4999639;28;20034;-82
2022/01/29 07:26:18;;;;;;;13.30;3.58;;;;;;;10.11;100.00;102226.06;4982465;28;20038;-81
2022/01/29 07:28:43;;;;;;;31.77;5.70;;;;;;;10.07;100.00;102228.16;4983831;28;20026;-78
2022/01/29 07:31:09;;;;;;;18.80;3.15;;;;;;;10.10;100.00;102225.19;5001808;28;20026;-80
2022/01/29 07:33:35;;;;;;;14.43;3.33;;;;;;;10.06;100.00;102223.78;5007913;28;20112;-82
2022/01/29 07:36:00;;;;;;;18.05;3.55;;;;;;;10.09;100.00;102226.19;5006099;28;20383;-82
2022/01/29 07:38:26;;;;;;;14.13;3.08;;;;;;;10.09;100.00;102239.63;5005595;28;20022;-81
2022/01/29 07:40:52;;;;;;;7.40;2.05;;;;;;;10.05;100.00;102232.81;4973747;28;20474;-78
2022/01/29 07:43:18;;;;;;;11.55;2.47;;;;;;;10.06;100.00;102223.78;4979271;28;20545;-80
2022/01/29 07:45:43;;;;;;;10.05;2.72;;;;;;;10.09;100.00;102223.50;5005698;28;20026;-82
2022/01/29 07:48:09;;;;;;;13.50;4.15;;;;;;;10.06;100.00;102233.69;5002952;28;20036;-82
2022/01/29 07:50:35;;;;;;;10.20;2.60;;;;;;;10.10;100.00;102244.00;4997810;28;20047;-81
2022/01/29 07:53:04;;;;;;;14.00;2.42;;;;;;;10.08;100.00;102232.56;4985963;28;20411;-82
2022/01/29 07:55:30;;;;;;;1.08;0.95;;;;;;;10.09;100.00;102246.84;4984151;28;20537;-82
2022/01/29 07:58:01;;;;;;;10.40;1.70;;;;;;;10.06;100.00;102249.81;4981890;28;20026;-78
2022/01/29 08:00:27;;;;;;;10.25;1.98;;;;;;;10.08;100.00;102262.13;4992297;28;20034;-81
2022/01/29 08:02:53;;;;;;;0.93;0.90;;;;;;;10.07;100.00;102264.94;4973296;28;20668;-81
2022/01/29 08:05:19;;;;;;;6.32;1.35;;;;;;;10.07;100.00;102276.53;4974320;28;20124;-81
2022/01/29 08:07:45;;;;;;;11.98;2.38;;;;;;;10.07;100.00;102278.38;5001673;28;20042;-81
2022/01/29 08:10:10;;;;;;;6.53;2.28;;;;;;;10.06;100.00;102276.69;5007203;28;20031;-79
2022/01/29 08:12:36;;;;;;;5.68;0.88;;;;;;;10.03;100.00;102256.31;4983097;28;20045;-82
2022/01/29 08:15:06;;;;;;;4.63;1.52;;;;;;;10.02;100.00;102280.63;4983097;28;20034;-81
2022/01/29 08:17:32;;;;;;;9.52;2.90;;;;;;;10.04;100.00;102289.41;5001707;28;20034;-81
2022/01/29 08:19:58;;;;;;;1.40;0.70;;;;;;;9.97;100.00;102267.56;5005666;28;20034;-81
2022/01/29 08:22:24;;;;;;;4.47;0.88;;;;;;;9.80;100.00;102252.09;4993576;28;20033;-80
2022/01/29 08:24:52;;;;;;;10.95;1.98;;;;;;;10.03;100.00;102285.88;4974319;28;20029;-81
2022/01/29 08:27:21;;;;;;;0.70;0.70;;;;;;;9.96;100.00;102279.31;5011290;28;20049;-83
2022/01/29 08:29:47;;;;;;;5.55;1.23;;;;;;;9.97;100.00;102285.53;5008065;28;20034;-79
2022/01/29 08:32:13;;;;;;;1.20;1.17;;;;;;;9.98;100.00;102292.63;5005213;28;20045;-81
2022/01/29 08:34:40;;;;;;;1.55;0.70;;;;;;;10.00;100.00;102290.66;5011467;28;20117;-81
2022/01/29 08:37:09;;;;;;;2.95;1.25;;;;;;;9.93;100.00;102278.75;5010837;28;20092;-79
2022/01/29 08:39:34;;;;;;;4.65;1.75;;;;;;;9.98;100.00;102298.84;5010083;28;20034;-83
2022/01/29 08:42:00;;;;;;;0.60;0.60;;;;;;;9.97;100.00;102307.03;4983953;28;20410;-82
2022/01/29 08:44:26;;;;;;;2.58;0.80;;;;;;;9.94;100.00;102307.31;5015821;28;20432;-83
2022/01/29 08:46:52;;;;;;;0.60;0.60;;;;;;;9.95;100.00;102320.63;4995223;28;20041;-79
2022/01/29 08:49:18;;;;;;;4.90;1.00;;;;;;;9.95;100.00;102341.25;5006673;28;20648;-82
2022/01/29 08:51:44;;;;;;;15.95;1.75;;;;;;;9.90;100.00;102349.72;4996219;28;20046;-79
2022/01/29 08:54:09;;;;;;;38.30;6.00;;;;;;;9.66;100.00;102355.38;4978361;28;20069;-80
2022/01/29 08:56:35;;;;;;;24.52;4.75;;;;;;;9.40;100.00;102384.41;4994119;28;20030;-81
2022/01/29 08:59:01;;;;;;;42.40;7.28;;;;;;;9.21;100.00;102361.78;5010847;28;20034;-78
2022/01/29 09:01:27;;;;;;;33.20;8.43;;;;;;;9.12;100.00;102367.06;5013985;28;20382;-80
2022/01/29 09:03:53;;;;;;;44.75;8.13;;;;;;;9.05;100.00;102379.28;5015640;28;20042;-81
2022/01/29 09:06:21;;;;;;;18.52;3.38;;;;;;;9.02;100.00;102378.56;5001384;28;20042;-81
2022/01/29 09:08:51;;;;;;;29.83;6.13;;;;;;;8.89;100.00;102360.91;4997751;28;20038;-81
2022/01/29 09:11:18;;;;;;;30.13;4.63;;;;;;;8.94;100.00;102385.53;5011726;28;20026;-80
2022/01/29 09:13:44;;;;;;;28.23;4.28;;;;;;;8.97;100.00;102396.00;4994168;28;20030;-82
2022/01/29 09:16:10;;;;;;;30.92;4.60;;;;;;;8.91;100.00;102388.47;4994888;28;20502;-80
2022/01/29 09:18:36;;;;;;;22.92;3.35;;;;;;;8.91;100.00;102412.59;4972323;28;20033;-82
2022/01/29 09:21:02;;;;;;;49.78;7.35;;;;;;;8.87;100.00;102416.53;4993553;28;20038;-79
2022/01/29 09:23:27;;;;;;;30.33;5.80;;;;;;;8.87;100.00;102421.88;4989500;28;20029;-81
2022/01/29 09:25:53;;;;;;;45.67;7.90;;;;;;;8.86;100.00;102421.00;5028691;28;20052;-78
2022/01/29 09:28:18;;;;;;;20.50;3.17;;;;;;;8.80;100.00;102432.25;5006330;28;20073;-81
2022/01/29 09:30:45;;;;;;;43.67;8.15;;;;;;;8.79;100.00;102439.44;4995376;28;20037;-82
2022/01/29 09:33:11;;;;;;;18.30;4.07;;;;;;;8.80;100.00;102443.81;4992573;28;20057;-82
2022/01/29 09:35:41;;;;;;;26.65;5.57;;;;;;;8.82;100.00;102437.50;5004767;28;20033;-82
2022/01/29 09:38:14;;;;;;;26.38;4.72;;;;;;;9.07;100.00;102455.13;5008579;28;20030;-79
2022/01/29 09:41:05;;;;;;;2.13;0.82;;;;;;;9.50;100.00;102449.81;4987209;28;20046;-81
2022/01/29 09:43:34;;;;;;;30.30;5.43;;;;;;;10.18;100.00;102457.53;4976661;28;20132;-81
2022/01/29 09:46:00;;;;;;;22.08;4.40;;;;;;;10.78;100.00;102429.84;4976769;28;20495;-82
2022/01/29 09:48:30;;;;;;;36.83;7.25;;;;;;;11.18;100.00;102441.56;4995278;28;20056;-82
2022/01/29 09:50:57;;;;;;;30.48;5.45;;;;;;;11.45;100.00;102447.13;5009665;28;20038;-82
2022/01/29 09:53:23;;;;;;;17.30;3.08;;;;;;;11.65;100.00;102453.38;4979024;28;20070;-82
2022/01/29 09:55:48;;;;;;;20.60;4.15;;;;;;;11.65;100.00;102444.47;4978774;28;20065;-82
2022/01/29 09:58:17;;;;;;;18.63;4.07;;;;;;;11.70;100.00;102452.97;5009701;28;20046;-81
2022/01/29 10:00:43;;;;;;;13.52;2.25;;;;;;;11.48;100.00;102454.06;4992325;28;20551;-81
2022/01/29 10:03:15;;;;;;;27.58;4.03;;;;;;;11.91;99.53;102466.34;4976377;28;21907;-80
2022/01/29 10:05:47;;;;;;;1.42;1.40;;;;;;;12.15;97.95;102478.50;5008629;28;20644;-81
2022/01/29 10:08:13;;;;;;;16.58;2.30;;;;;;;12.30;96.47;102466.25;4991636;28;20042;-80
2022/01/29 10:10:46;;;;;;;18.98;4.40;;;;;;;12.53;94.56;102480.25;5011442;28;20581;-81
2022/01/29 10:13:24;;;;;;;4.18;1.10;;;;;;;12.82;93.18;102507.16;5011664;28;20167;-81
2022/01/29 10:15:51;;;;;;;7.82;2.53;;;;;;;13.14;90.75;102516.69;4994458;28;20172;-81
2022/01/29 10:18:23;;;;;;;15.13;3.67;;;;;;;13.30;89.31;102525.00;5010466;28;20034;-82
2022/01/29 10:20:50;;;;;;;9.73;2.20;;;;;;;13.67;88.43;102531.34;5010893;28;20045;-82
2022/01/29 10:23:15;;;;;;;17.23;3.05;;;;;;;14.01;86.62;102547.72;5004305;28;20181;-81
2022/01/29 10:25:44;;;;;;;16.50;2.83;;;;;;;14.25;85.22;102547.09;5010610;28;20567;-81
2022/01/29 10:28:17;;;;;;;13.77;2.92;;;;;;;14.41;83.31;102541.81;5010033;28;20443;-82
2022/01/29 10:30:49;;;;;;;8.23;3.72;;;;;;;14.64;83.00;102527.81;5011294;28;20042;-82
2022/01/29 10:33:35;;;;;;;7.85;1.75;;;;;;;15.11;81.89;102549.91;5011171;28;20097;-82
2022/01/29 10:36:01;;;;;;;14.15;3.90;;;;;;;15.29;79.73;102574.19;4990875;28;20064;-80
2022/01/29 10:38:48;;;;;;;25.08;4.35;;;;;;;15.28;80.14;102561.66;4998256;28;20539;-80
2022/01/29 10:41:22;;;;;;;22.30;3.70;;;;;;;15.42;79.54;102551.19;5010371;28;20034;-83
2022/01/29 10:43:59;;;;;;;12.65;3.13;;;;;;;15.69;77.91;102553.72;5010720;28;20030;-82
2022/01/29 10:46:30;;;;;;;25.77;3.65;;;;;;;15.89;77.81;102553.41;5010882;28;20376;-82
2022/01/29 10:48:57;;;;;;;29.92;5.20;;;;;;;16.18;75.97;102564.63;5011630;28;20052;-82
2022/01/29 10:51:24;;;;;;;20.48;3.58;;;;;;;16.26;74.95;102571.91;5009462;28;20025;-81
2022/01/29 10:53:50;;;;;;;27.20;3.90;;;;;;;16.25;75.73;102567.50;5010858;28;20034;-80
2022/01/29 10:56:16;;;;;;;31.52;4.75;;;;;;;16.32;74.58;102595.66;5010600;28;20037;-80
2022/01/29 10:58:43;;;;;;;27.02;4.18;;;;;;;16.38;73.83;102602.28;5009755;28;20032;-80
2022/01/29 11:01:19;;;;;;;24.52;4.47;;;;;;;16.23;73.10;102611.09;4975193;28;20100;-79
2022/01/29 11:03:45;;;;;;;35.55;5.53;;;;;;;15.92;75.75;102615.44;5001728;28;20025;-78
2022/01/29 11:06:15;;;;;;;33.05;7.00;;;;;;;15.97;74.30;102597.66;4988536;28;20034;-79
2022/01/29 11:08:42;;;;;;;37.20;5.18;;;;;;;16.39;74.52;102625.72;4992979;28;20060;-80
2022/01/29 11:11:08;;;;;;;27.38;5.53;;;;;;;16.93;72.33;102623.31;5008459;28;20103;-79
2022/01/29 11:13:35;;;;;;;28.90;6.95;;;;;;;17.35;70.92;102622.19;5006418;28;20108;-77
2022/01/29 11:16:02;;;;;;;17.85;4.07;;;;;;;16.62;72.61;102626.72;4995150;28;20038;-79
2022/01/29 11:18:29;;;;;;;31.85;7.47;;;;;;;14.98;75.69;102628.06;4991047;28;20042;-77
2022/01/29 11:20:55;;;;;;;30.48;4.43;;;;;;;13.72;82.90;102631.75;5009533;28;20037;-79
2022/01/29 11:23:22;;;;;;;28.92;4.50;;;;;;;13.08;84.35;102636.97;4992167;28;20040;-78
2022/01/29 11:25:52;;;;;;;34.30;5.55;;;;;;;14.01;81.99;102632.41;4975798;28;20037;-77
2022/01/29 11:28:19;;;;;;;20.25;4.25;;;;;;;14.40;79.10;102621.31;5007107;28;20116;-77